Flight Track Log - Related Links

Times and Time Zones

All times are in EDT time to prevent confusion due to time zone crossing. See the N76055 flight status page for this flight to view local times or setup timezone preferences in your user account.

Time Position Orientation Groundspeed Altitude Reporting Facility
EDT Latitude Longitude Course Direction KTS MPH feet Rate Location/Type
Thu 08:45:00 PM -23.0598 -46.6343 335° Northwest  Level Estimated
Thu 08:45:33 PM -23.3420 -46.2390 335° Northwest 278 320 8,300  Level FlightAware ADS-B
Thu 08:46:48 PM -23.2390 -46.2120 14° North 314 361 10,500 1,593 Climbing FlightAware ADS-B
Thu 08:49:00 PM -22.9834 -46.3263 338° Northwest  Level Estimated
Thu 08:50:00 PM -22.8673 -46.3781 338° Northwest  Level Estimated
Thu 08:50:23 PM -22.8640 -46.2160 338° Northwest 404 465 16,000  Level FlightAware ADS-B
Thu 08:51:38 PM -22.7210 -46.2410 351° North 425 489 18,300 1,760 Climbing FlightAware ADS-B
Thu 08:52:53 PM -22.5730 -46.2670 351° North 437 503 20,400 1,614 Climbing FlightAware ADS-B
Thu 08:54:03 PM -22.4310 -46.2910 351° North 440 506 22,200 1,457 Climbing FlightAware ADS-B
Thu 08:55:13 PM -22.2850 -46.3160 351° North 458 527 23,800 1,407 Climbing FlightAware ADS-B
Thu 08:56:28 PM -22.1240 -46.3430 351° North 458 527 25,600 1,333 Climbing FlightAware ADS-B
Thu 08:58:58 PM -21.7990 -46.4020 338° Northwest 474 545 28,800 1,275 Climbing FlightAware ADS-B
Thu 08:59:00 PM -21.8299 -46.4739 338° Northwest  Level Estimated
Thu 09:00:28 PM -21.6090 -46.4330 351° North 459 528 30,700  Level FlightAware ADS-B
Thu 09:01:23 PM -21.4930 -46.4510 352° North 452 520 31,000 138 Climbing FlightAware ADS-B
Thu 09:02:38 PM -21.3380 -46.4760 351° North 458 527 31,000  Level FlightAware ADS-B
Thu 09:03:48 PM -21.1910 -46.5000 351° North 456 525 31,000  Level FlightAware ADS-B
Thu 09:04:33 PM -21.0980 -46.5150 351° North 455 524 31,000  Level FlightAware ADS-B
Thu 09:05:28 PM -20.9810 -46.5340 351° North 454 522 31,000  Level FlightAware ADS-B
Thu 09:06:23 PM -20.8610 -46.5530 352° North 462 532 31,000  Level FlightAware ADS-B
Thu 09:07:08 PM -20.7600 -46.5690 352° North 460 529 31,000  Level FlightAware ADS-B
Thu 09:07:43 PM -20.6920 -46.5800 351° North 460 529 31,000  Level FlightAware ADS-B
Thu 09:08:33 PM -20.6020 -46.5950 351° North 460 529 31,000  Level FlightAware ADS-B
Thu 09:09:13 PM -20.5310 -46.6080 350° North 460 529 31,000  Level FlightAware ADS-B
Thu 09:09:53 PM -20.4590 -46.6200 351° North 460 529 31,000  Level FlightAware ADS-B
Thu 09:10:33 PM -20.3880 -46.6320 351° North 460 529 31,000  Level FlightAware ADS-B
Thu 09:11:13 PM -20.3160 -46.6440 351° North 460 529 31,000  Level FlightAware ADS-B
Thu 09:12:03 PM -20.2270 -46.6590 351° North 460 529 31,000  Level FlightAware ADS-B
Thu 09:12:43 PM -20.1560 -46.6710 351° North 460 529 31,000  Level FlightAware ADS-B
Thu 09:13:23 PM -20.0840 -46.6830 351° North 460 529 31,000  Level FlightAware ADS-B
Thu 09:14:03 PM -20.0130 -46.6950 351° North 460 529 31,000  Level FlightAware ADS-B
Thu 09:14:43 PM -19.9410 -46.7070 351° North 460 529 31,000  Level FlightAware ADS-B
Thu 09:15:23 PM -19.8700 -46.7190 351° North 460 529 31,000  Level FlightAware ADS-B
Thu 09:16:13 PM -19.7800 -46.7340 351° North 460 529 31,000  Level FlightAware ADS-B
Thu 09:16:53 PM -19.7090 -46.7460 351° North 460 529 31,000 39 Level FlightAware ADS-B
Thu 09:19:00 PM -19.4634 -46.8541 337° Northwest  Level Estimated
Thu 09:20:00 PM -19.3474 -46.9051 337° Northwest  Level Estimated
Thu 09:21:00 PM -19.2314 -46.9560 337° Northwest  Level Estimated
Thu 09:22:00 PM -19.1153 -47.0069 338° Northwest  Level Estimated
Thu 09:23:00 PM -18.9993 -47.0576 338° Northwest  Level Estimated
Thu 09:24:00 PM -18.8832 -47.1083 338° Northwest  Level Estimated
Thu 09:25:00 PM -18.7671 -47.1590 338° Northwest  Level Estimated
Thu 09:26:00 PM -18.6509 -47.2095 338° Northwest  Level Estimated
Thu 09:27:00 PM -18.5348 -47.2600 338° Northwest  Level Estimated
Thu 09:28:00 PM -18.4187 -47.3104 338° Northwest  Level Estimated
Thu 09:29:00 PM -18.3025 -47.3607 338° Northwest  Level Estimated
Thu 09:30:00 PM -18.1864 -47.4110 338° Northwest  Level Estimated
Thu 09:31:00 PM -18.0702 -47.4612 338° Northwest  Level Estimated
Thu 09:32:00 PM -17.9540 -47.5114 338° Northwest  Level Estimated
Thu 09:33:00 PM -17.8378 -47.5615 338° Northwest  Level Estimated
Thu 09:34:00 PM -17.7216 -47.6115 338° Northwest  Level Estimated
Thu 09:35:00 PM -17.6053 -47.6614 338° Northwest  Level Estimated
Thu 09:36:00 PM -17.4891 -47.7113 338° Northwest  Level Estimated
Thu 09:37:00 PM -17.3729 -47.7612 338° Northwest  Level Estimated
Thu 09:38:00 PM -17.2566 -47.8109 338° Northwest  Level Estimated
Thu 09:39:00 PM -17.1403 -47.8606 338° Northwest  Level Estimated
Thu 09:40:00 PM -17.0240 -47.9103 338° Northwest  Level Estimated
Thu 09:41:00 PM -16.9077 -47.9598 338° Northwest  Level Estimated
Thu 09:42:00 PM -16.7914 -48.0093 338° Northwest  Level Estimated
Thu 09:42:08 PM -16.4950 -47.7680 338° Northwest 449 517 32,000  Level FlightAware ADS-B
Thu 09:42:53 PM -16.4170 -47.8040 336° Northwest 450 518 32,000  Level FlightAware ADS-B
Thu 09:43:28 PM -16.3510 -47.8360 335° Northwest 449 517 32,000  Level FlightAware ADS-B
Thu 09:44:13 PM -16.2650 -47.8750 336° Northwest 449 517 32,000  Level FlightAware ADS-B
Thu 09:44:48 PM -16.1960 -47.9080 335° Northwest 450 518 32,000  Level FlightAware ADS-B
Thu 09:45:38 PM -16.1050 -47.9510 336° Northwest 449 517 32,000  Level FlightAware ADS-B
Thu 09:46:18 PM -16.0410 -47.9820 335° Northwest 449 517 32,000  Level FlightAware ADS-B
Thu 09:46:58 PM -15.9770 -48.0130 335° Northwest 449 517 32,000  Level FlightAware ADS-B
Thu 09:47:43 PM -15.8620 -48.0630 337° Northwest 450 518 32,000  Level FlightAware ADS-B
Thu 09:48:18 PM -15.7920 -48.0950 336° Northwest 449 517 32,000  Level FlightAware ADS-B
Thu 09:49:23 PM -15.6820 -48.1470 336° Northwest 449 517 32,000  Level FlightAware ADS-B
Thu 09:49:58 PM -15.6100 -48.1790 337° Northwest 442 509 32,000  Level FlightAware ADS-B
Thu 09:50:48 PM -15.5120 -48.2250 336° Northwest 449 517 32,000  Level FlightAware ADS-B
Thu 09:51:28 PM -15.4320 -48.2610 337° Northwest 452 520 32,000  Level FlightAware ADS-B
Thu 09:52:13 PM -15.3460 -48.3010 336° Northwest 450 518 32,000  Level FlightAware ADS-B
Thu 09:53:48 PM -15.1700 -48.3820 336° Northwest 449 517 32,000  Level FlightAware ADS-B
Thu 09:54:33 PM -15.0860 -48.4210 336° Northwest 449 517 32,000  Level FlightAware ADS-B
Thu 09:55:13 PM -15.0090 -48.4560 336° Northwest 450 518 32,000  Level FlightAware ADS-B
Thu 09:55:58 PM -14.9230 -48.4950 336° Northwest 451 519 32,000  Level FlightAware ADS-B
Thu 09:56:38 PM -14.8460 -48.5300 336° Northwest 452 520 32,000  Level FlightAware ADS-B
Thu 09:57:18 PM -14.7760 -48.5620 336° Northwest 454 522 32,000  Level FlightAware ADS-B
Thu 09:57:58 PM -14.6980 -48.5970 337° Northwest 453 521 32,000  Level FlightAware ADS-B
Thu 09:58:33 PM -14.6280 -48.6290 336° Northwest 454 522 32,000  Level FlightAware ADS-B
Thu 09:59:18 PM -14.5500 -48.6650 336° Northwest 454 522 32,000  Level FlightAware ADS-B
Thu 10:00:08 PM -14.4450 -48.7120 337° Northwest 455 524 32,000  Level FlightAware ADS-B
Thu 10:00:43 PM -14.3840 -48.7400 336° Northwest 455 524 32,000  Level FlightAware ADS-B
Thu 10:01:33 PM -14.3030 -48.7780 336° Northwest 455 524 32,000  Level FlightAware ADS-B
Thu 10:02:13 PM -14.2370 -48.8080 336° Northwest 455 524 32,000  Level FlightAware ADS-B
Thu 10:02:53 PM -14.1200 -48.8590 337° Northwest 457 526 32,000  Level FlightAware ADS-B
Thu 10:03:33 PM -14.0550 -48.8890 336° Northwest 457 526 32,000  Level FlightAware ADS-B
Thu 10:04:23 PM -13.9720 -48.9270 336° Northwest 457 526 32,000  Level FlightAware ADS-B
Thu 10:05:03 PM -13.9070 -48.9570 336° Northwest 457 526 32,000  Level FlightAware ADS-B
Thu 10:05:43 PM -13.8410 -48.9870 336° Northwest 457 526 32,000  Level FlightAware ADS-B
Thu 10:06:23 PM -13.7750 -49.0170 336° Northwest 457 526 32,000  Level FlightAware ADS-B
Thu 10:07:03 PM -13.7100 -49.0470 336° Northwest 457 526 32,000  Level FlightAware ADS-B
Thu 10:07:43 PM -13.6440 -49.0770 336° Northwest 457 526 32,000  Level FlightAware ADS-B
Thu 10:08:23 PM -13.5780 -49.1070 336° Northwest 457 526 32,000  Level FlightAware ADS-B
Thu 10:09:13 PM -13.4960 -49.1450 336° Northwest 457 526 32,000  Level FlightAware ADS-B
Thu 10:09:53 PM -13.4310 -49.1750 336° Northwest 457 526 32,000  Level FlightAware ADS-B
Thu 10:10:33 PM -13.3650 -49.2050 336° Northwest 457 526 32,000  Level FlightAware ADS-B
Thu 10:11:23 PM -13.2830 -49.2420 336° Northwest 457 526 32,000  Level FlightAware ADS-B
Thu 10:12:03 PM -13.2170 -49.2720 336° Northwest 457 526 32,000 10 Level FlightAware ADS-B
Thu 10:14:00 PM -12.9898 -49.3660 338° Northwest  Level Estimated
Thu 10:15:00 PM -12.8733 -49.4141 338° Northwest  Level Estimated
Thu 10:16:00 PM -12.7568 -49.4622 338° Northwest  Level Estimated
Thu 10:17:00 PM -12.6403 -49.5102 338° Northwest  Level Estimated
Thu 10:18:00 PM -12.5237 -49.5582 338° Northwest  Level Estimated
Thu 10:19:00 PM -12.4072 -49.6061 338° Northwest  Level Estimated
Thu 10:20:00 PM -12.2906 -49.6540 338° Northwest  Level Estimated
Thu 10:21:00 PM -12.1740 -49.7019 338° Northwest  Level Estimated
Thu 10:22:00 PM -12.0575 -49.7497 338° Northwest  Level Estimated
Thu 10:23:00 PM -11.9409 -49.7974 338° Northwest  Level Estimated
Thu 10:24:00 PM -11.8243 -49.8452 338° Northwest  Level Estimated
Thu 10:25:00 PM -11.7077 -49.8929 338° Northwest  Level Estimated
Thu 10:26:00 PM -11.5911 -49.9405 338° Northwest  Level Estimated
Thu 10:27:00 PM -11.4745 -49.9881 338° Northwest  Level Estimated
Thu 10:28:00 PM -11.3579 -50.0357 338° Northwest  Level Estimated
Thu 10:29:00 PM -11.2412 -50.0832 338° Northwest  Level Estimated
Thu 10:30:00 PM -11.1246 -50.1307 338° Northwest  Level Estimated
Thu 10:31:00 PM -11.0079 -50.1782 338° Northwest  Level Estimated
Thu 10:32:00 PM -10.8913 -50.2256 338° Northwest  Level Estimated
Thu 10:33:00 PM -10.7746 -50.2730 338° Northwest  Level Estimated
Thu 10:34:00 PM -10.6580 -50.3203 338° Northwest  Level Estimated
Thu 10:35:00 PM -10.5413 -50.3676 338° Northwest  Level Estimated
Thu 10:36:00 PM -10.4246 -50.4149 338° Northwest  Level Estimated
Thu 10:37:00 PM -10.3079 -50.4621 338° Northwest  Level Estimated
Thu 10:38:00 PM -10.1912 -50.5093 338° Northwest  Level Estimated
Thu 10:39:00 PM -10.0745 -50.5565 338° Northwest  Level Estimated
Thu 10:40:00 PM -9.9578 -50.6036 338° Northwest  Level Estimated
Thu 10:41:00 PM -9.8411 -50.6507 338° Northwest  Level Estimated
Thu 10:42:00 PM -9.7244 -50.6978 338° Northwest  Level Estimated
Thu 10:43:00 PM -9.6077 -50.7448 338° Northwest  Level Estimated
Thu 10:44:00 PM -9.4909 -50.7918 338° Northwest  Level Estimated
Thu 10:45:00 PM -9.3742 -50.8388 338° Northwest  Level Estimated
Thu 10:46:00 PM -9.2575 -50.8857 338° Northwest  Level Estimated
Thu 10:47:00 PM -9.1407 -50.9327 338° Northwest  Level Estimated
Thu 10:48:00 PM -9.0239 -50.9795 338° Northwest  Level Estimated
Thu 10:49:00 PM -8.9072 -51.0264 338° Northwest  Level Estimated
Thu 10:50:00 PM -8.7904 -51.0732 338° Northwest  Level Estimated
Thu 10:51:00 PM -8.6736 -51.1200 338° Northwest  Level Estimated
Thu 10:52:00 PM -8.5569 -51.1667 338° Northwest  Level Estimated
Thu 10:53:00 PM -8.4401 -51.2135 338° Northwest  Level Estimated
Thu 10:54:00 PM -8.3233 -51.2602 338° Northwest  Level Estimated
Thu 10:55:00 PM -8.2065 -51.3068 338° Northwest  Level Estimated
Thu 10:56:00 PM -8.0897 -51.3535 338° Northwest  Level Estimated
Thu 10:57:00 PM -7.9729 -51.4001 338° Northwest  Level Estimated
Thu 10:58:00 PM -7.8561 -51.4467 338° Northwest  Level Estimated
Thu 10:59:00 PM -7.7392 -51.4933 338° Northwest  Level Estimated
Thu 11:00:00 PM -7.6224 -51.5398 338° Northwest  Level Estimated
Thu 11:01:00 PM -7.5056 -51.5863 338° Northwest  Level Estimated
Thu 11:02:00 PM -7.3888 -51.6328 338° Northwest  Level Estimated
Thu 11:03:00 PM -7.2719 -51.6792 338° Northwest  Level Estimated
Thu 11:04:00 PM -7.1551 -51.7257 338° Northwest  Level Estimated
Thu 11:05:00 PM -7.0382 -51.7721 338° Northwest  Level Estimated
Thu 11:06:00 PM -6.9214 -51.8185 338° Northwest  Level Estimated
Thu 11:07:00 PM -6.8045 -51.8649 338° Northwest  Level Estimated
Thu 11:08:00 PM -6.6877 -51.9112 339° North  Level Estimated
Thu 11:09:00 PM -6.5708 -51.9575 339° North  Level Estimated
Thu 11:10:00 PM -6.4539 -52.0038 339° North  Level Estimated
Thu 11:11:00 PM -6.3370 -52.0501 339° North  Level Estimated
Thu 11:12:00 PM -6.2202 -52.0964 339° North  Level Estimated
Thu 11:13:00 PM -6.1033 -52.1426 339° North  Level Estimated
Thu 11:14:00 PM -5.9864 -52.1888 339° North  Level Estimated
Thu 11:15:00 PM -5.8695 -52.2350 339° North  Level Estimated
Thu 11:16:00 PM -5.7526 -52.2812 339° North  Level Estimated
Thu 11:17:00 PM -5.6357 -52.3274 339° North  Level Estimated
Thu 11:18:00 PM -5.5188 -52.3735 339° North  Level Estimated
Thu 11:19:00 PM -5.4019 -52.4196 339° North  Level Estimated
Thu 11:20:00 PM -5.2850 -52.4658 339° North  Level Estimated
Thu 11:21:00 PM -5.1681 -52.5118 339° North  Level Estimated
Thu 11:22:00 PM -5.0512 -52.5579 339° North  Level Estimated
Thu 11:23:00 PM -4.9343 -52.6040 339° North  Level Estimated
Thu 11:24:00 PM -4.8173 -52.6500 339° North  Level Estimated
Thu 11:25:00 PM -4.7004 -52.6960 339° North  Level Estimated
Thu 11:26:00 PM -4.5835 -52.7420 339° North  Level Estimated
Thu 11:27:00 PM -4.4666 -52.7880 339° North  Level Estimated
Thu 11:28:00 PM -4.3496 -52.8340 339° North  Level Estimated
Thu 11:29:00 PM -4.2327 -52.8800 339° North  Level Estimated
Thu 11:30:00 PM -4.1158 -52.9259 339° North  Level Estimated
Thu 11:31:00 PM -3.9988 -52.9719 339° North  Level Estimated
Thu 11:32:00 PM -3.8819 -53.0178 339° North  Level Estimated
Thu 11:33:00 PM -3.7649 -53.0637 339° North  Level Estimated
Thu 11:34:00 PM -3.6480 -53.1096 339° North  Level Estimated
Thu 11:35:00 PM -3.5310 -53.1555 339° North  Level Estimated
Thu 11:36:00 PM -3.4141 -53.2014 339° North  Level Estimated
Thu 11:37:00 PM -3.2971 -53.2472 339° North  Level Estimated
Thu 11:38:00 PM -3.1802 -53.2931 339° North  Level Estimated
Thu 11:39:00 PM -3.0632 -53.3389 339° North  Level Estimated
Thu 11:40:00 PM -2.9462 -53.3847 339° North  Level Estimated
Thu 11:41:00 PM -2.8293 -53.4306 339° North  Level Estimated
Thu 11:42:00 PM -2.7123 -53.4764 339° North  Level Estimated
Thu 11:43:00 PM -2.5954 -53.5222 339° North  Level Estimated
Thu 11:44:00 PM -2.4784 -53.5680 339° North  Level Estimated
Thu 11:45:00 PM -2.3614 -53.6138 339° North  Level Estimated
Thu 11:46:00 PM -2.2444 -53.6595 339° North  Level Estimated
Thu 11:47:00 PM -2.1275 -53.7053 339° North  Level Estimated
Thu 11:48:00 PM -2.0105 -53.7511 339° North  Level Estimated
Thu 11:49:00 PM -1.8935 -53.7968 339° North  Level Estimated
Thu 11:50:00 PM -1.7765 -53.8426 339° North  Level Estimated
Thu 11:51:00 PM -1.6596 -53.8884 339° North  Level Estimated
Thu 11:52:00 PM -1.5426 -53.9341 339° North  Level Estimated
Thu 11:53:00 PM -1.4256 -53.9798 339° North  Level Estimated
Thu 11:54:00 PM -1.3086 -54.0256 339° North  Level Estimated
Thu 11:55:00 PM -1.1916 -54.0713 339° North  Level Estimated
Thu 11:56:00 PM -1.0747 -54.1170 339° North  Level Estimated
Thu 11:57:00 PM -0.9577 -54.1627 339° North  Level Estimated
Thu 11:58:00 PM -0.8407 -54.2085 339° North  Level Estimated
Thu 11:59:00 PM -0.7237 -54.2542 339° North  Level Estimated
Fri 12:00:00 AM -0.6067 -54.2999 339° North  Level Estimated
Fri 12:01:00 AM -0.4898 -54.3456 339° North  Level Estimated
Fri 12:02:00 AM -0.3728 -54.3913 339° North  Level Estimated
Fri 12:03:00 AM -0.2558 -54.4370 339° North  Level Estimated
Fri 12:04:00 AM -0.1388 -54.4827 339° North  Level Estimated
Fri 12:05:00 AM -0.0218 -54.5284 339° North  Level Estimated
Fri 12:06:00 AM 0.0952 -54.5742 339° North  Level Estimated
Fri 12:07:00 AM 0.2122 -54.6199 339° North  Level Estimated
Fri 12:08:00 AM 0.3292 -54.6656 339° North  Level Estimated
Fri 12:09:00 AM 0.4462 -54.7113 339° North  Level Estimated
Fri 12:10:00 AM 0.5631 -54.7570 339° North  Level Estimated
Fri 12:11:00 AM 0.6801 -54.8027 339° North  Level Estimated
Fri 12:12:00 AM 0.7971 -54.8484 339° North  Level Estimated
Fri 12:13:00 AM 0.9141 -54.8941 339° North  Level Estimated
Fri 12:14:00 AM 1.0311 -54.9398 339° North  Level Estimated
Fri 12:15:00 AM 1.1480 -54.9856 339° North  Level Estimated
Fri 12:16:00 AM 1.2650 -55.0313 339° North  Level Estimated
Fri 12:17:00 AM 1.3820 -55.0770 339° North  Level Estimated
Fri 12:18:00 AM 1.4990 -55.1228 339° North  Level Estimated
Fri 12:19:00 AM 1.6160 -55.1685 339° North  Level Estimated
Fri 12:20:00 AM 1.7329 -55.2143 339° North  Level Estimated
Fri 12:21:00 AM 1.8499 -55.2600 339° North  Level Estimated
Fri 12:22:00 AM 1.9669 -55.3058 339° North  Level Estimated
Fri 12:23:00 AM 2.0839 -55.3515 339° North  Level Estimated
Fri 12:24:00 AM 2.2009 -55.3973 339° North  Level Estimated
Fri 12:25:00 AM 2.3178 -55.4431 339° North  Level Estimated
Fri 12:26:00 AM 2.4348 -55.4889 339° North  Level Estimated
Fri 12:27:00 AM 2.5518 -55.5347 339° North  Level Estimated
Fri 12:28:00 AM 2.6687 -55.5805 339° North  Level Estimated
Fri 12:29:00 AM 2.7857 -55.6263 339° North  Level Estimated
Fri 12:30:00 AM 2.9027 -55.6721 339° North  Level Estimated
Fri 12:31:00 AM 3.0196 -55.7179 339° North  Level Estimated
Fri 12:32:00 AM 3.1366 -55.7638 339° North  Level Estimated
Fri 12:33:00 AM 3.2535 -55.8096 339° North  Level Estimated
Fri 12:34:00 AM 3.3705 -55.8555 339° North  Level Estimated
Fri 12:35:00 AM 3.4874 -55.9013 339° North  Level Estimated
Fri 12:36:00 AM 3.6044 -55.9472 339° North  Level Estimated
Fri 12:37:00 AM 3.7213 -55.9931 339° North  Level Estimated
Fri 12:38:00 AM 3.8383 -56.0390 339° North  Level Estimated
Fri 12:39:00 AM 3.9552 -56.0849 339° North  Level Estimated
Fri 12:40:00 AM 4.0722 -56.1309 339° North  Level Estimated
Fri 12:41:00 AM 4.1891 -56.1768 339° North  Level Estimated
Fri 12:42:00 AM 4.3061 -56.2228 339° North  Level Estimated
Fri 12:43:00 AM 4.4230 -56.2687 339° North  Level Estimated
Fri 12:44:00 AM 4.5399 -56.3147 339° North  Level Estimated
Fri 12:45:00 AM 4.6568 -56.3607 339° North  Level Estimated
Fri 12:46:00 AM 4.7738 -56.4068 339° North  Level Estimated
Fri 12:47:00 AM 4.8907 -56.4528 339° North  Level Estimated
Fri 12:48:00 AM 5.0076 -56.4988 339° North  Level Estimated
Fri 12:49:00 AM 5.1245 -56.5449 339° North  Level Estimated
Fri 12:50:00 AM 5.2414 -56.5910 339° North  Level Estimated
Fri 12:51:00 AM 5.3584 -56.6371 339° North  Level Estimated
Fri 12:52:00 AM 5.4753 -56.6832 339° North  Level Estimated
Fri 12:53:00 AM 5.5922 -56.7294 339° North  Level Estimated
Fri 12:54:00 AM 5.7091 -56.7755 339° North  Level Estimated
Fri 12:55:00 AM 5.8260 -56.8217 339° North  Level Estimated
Fri 12:56:00 AM 5.9429 -56.8679 339° North  Level Estimated
Fri 12:57:00 AM 6.0597 -56.9141 339° North  Level Estimated
Fri 12:58:00 AM 6.1766 -56.9603 339° North  Level Estimated
Fri 12:59:00 AM 6.2935 -57.0065 339° North  Level Estimated
Fri 01:00:00 AM 6.4104 -57.0528 339° North  Level Estimated
Fri 01:01:00 AM 6.5272 -57.0991 339° North  Level Estimated
Fri 01:02:00 AM 6.6441 -57.1454 339° North  Level Estimated
Fri 01:03:00 AM 6.7610 -57.1918 339° North  Level Estimated
Fri 01:04:00 AM 6.8778 -57.2381 339° North  Level Estimated
Fri 01:05:00 AM 6.9947 -57.2845 338° Northwest  Level Estimated
Fri 01:06:00 AM 7.1115 -57.3309 338° Northwest  Level Estimated
Fri 01:07:00 AM 7.2284 -57.3773 338° Northwest  Level Estimated
Fri 01:08:00 AM 7.3452 -57.4238 338° Northwest  Level Estimated
Fri 01:09:00 AM 7.4620 -57.4703 338° Northwest  Level Estimated
Fri 01:10:00 AM 7.5789 -57.5168 338° Northwest  Level Estimated
Fri 01:11:00 AM 7.6957 -57.5633 338° Northwest  Level Estimated
Fri 01:12:00 AM 7.8125 -57.6099 338° Northwest  Level Estimated
Fri 01:13:00 AM 7.9293 -57.6564 338° Northwest  Level Estimated
Fri 01:14:00 AM 8.0462 -57.7030 338° Northwest  Level Estimated
Fri 01:15:00 AM 8.1629 -57.7497 338° Northwest  Level Estimated
Fri 01:16:00 AM 8.2797 -57.7963 338° Northwest  Level Estimated
Fri 01:17:00 AM 8.3965 -57.8430 338° Northwest  Level Estimated
Fri 01:18:00 AM 8.5133 -57.8898 338° Northwest  Level Estimated
Fri 01:19:00 AM 8.6301 -57.9365 338° Northwest  Level Estimated
Fri 01:20:00 AM 8.7469 -57.9833 338° Northwest  Level Estimated
Fri 01:21:00 AM 8.8637 -58.0301 338° Northwest  Level Estimated
Fri 01:22:00 AM 8.9814 -58.0773 338° Northwest  Level Estimated
Fri 01:23:00 AM 9.0991 -58.1246 338° Northwest  Level Estimated
Fri 01:24:00 AM 9.2169 -58.1718 338° Northwest  Level Estimated
Fri 01:25:00 AM 9.3346 -58.2192 338° Northwest  Level Estimated
Fri 01:26:00 AM 9.4523 -58.2665 338° Northwest  Level Estimated
Fri 01:27:00 AM 9.5700 -58.3139 338° Northwest  Level Estimated
Fri 01:28:00 AM 9.6877 -58.3613 338° Northwest  Level Estimated
Fri 01:29:00 AM 9.8054 -58.4088 338° Northwest  Level Estimated
Fri 01:30:00 AM 9.9231 -58.4562 338° Northwest  Level Estimated
Fri 01:31:00 AM 10.0408 -58.5038 338° Northwest  Level Estimated
Fri 01:32:00 AM 10.1585 -58.5513 338° Northwest  Level Estimated
Fri 01:33:00 AM 10.2761 -58.5989 338° Northwest  Level Estimated
Fri 01:34:00 AM 10.3938 -58.6465 338° Northwest  Level Estimated
Fri 01:34:13 AM 12.4580 -59.7970 338° Northwest 472 543 34,000  Level FlightAware ADS-B
Fri 01:34:58 AM 12.5410 -59.8300 339° North 472 543 34,000  Level FlightAware ADS-B
Fri 01:35:00 AM 10.5115 -58.6942 338° Northwest  Level Estimated
Fri 01:35:38 AM 12.6410 -59.8650 341° North 471 542 34,000  Level FlightAware ADS-B
Fri 01:36:18 AM 12.7270 -59.8980 339° North 472 543 34,000  Level FlightAware ADS-B
Fri 01:37:03 AM 12.8260 -59.9350 340° North 472 543 34,000  Level FlightAware ADS-B
Fri 01:37:38 AM 12.8960 -59.9610 340° North 472 543 34,000  Level FlightAware ADS-B
Fri 01:38:18 AM 12.9760 -59.9910 340° North 473 544 34,000  Level FlightAware ADS-B
Fri 01:39:08 AM 13.0780 -60.0300 340° North 473 544 34,000  Level FlightAware ADS-B
Fri 01:39:48 AM 13.1630 -60.0620 340° North 473 544 34,000  Level FlightAware ADS-B
Fri 01:40:33 AM 13.2580 -60.0980 340° North 473 544 34,000  Level FlightAware ADS-B
Fri 01:41:13 AM 13.3360 -60.1270 340° North 473 544 34,000  Level FlightAware ADS-B
Fri 01:41:53 AM 13.4230 -60.1610 339° North 474 545 34,000  Level FlightAware ADS-B
Fri 01:42:38 AM 13.5150 -60.1950 340° North 475 547 34,000  Level FlightAware ADS-B
Fri 01:43:18 AM 13.5930 -60.2250 340° North 476 548 34,000  Level FlightAware ADS-B
Fri 01:43:58 AM 13.6730 -60.2560 339° North 476 548 34,000  Level FlightAware ADS-B
Fri 01:44:43 AM 13.7710 -60.2930 340° North 476 548 34,000  Level FlightAware ADS-B
Fri 01:45:23 AM 13.8580 -60.3270 339° North 476 548 34,000  Level FlightAware ADS-B
Fri 01:46:08 AM 13.9460 -60.3610 339° North 476 548 34,000  Level FlightAware ADS-B
Fri 01:46:53 AM 14.0440 -60.3990 339° North 477 549 34,000  Level FlightAware ADS-B
Fri 01:47:33 AM 14.1250 -60.4300 340° North 477 549 34,000  Level FlightAware ADS-B
Fri 01:48:13 AM 14.2060 -60.4610 340° North 477 549 34,000  Level FlightAware ADS-B
Fri 01:48:58 AM 14.3000 -60.4980 339° North 477 549 34,000  Level FlightAware ADS-B
Fri 01:49:38 AM 14.3810 -60.5290 340° North 477 549 34,000  Level FlightAware ADS-B
Fri 01:50:23 AM 14.4720 -60.5640 340° North 475 547 34,000  Level FlightAware ADS-B
Fri 01:51:03 AM 14.5550 -60.5970 339° North 475 547 34,000  Level FlightAware ADS-B
Fri 01:51:43 AM 14.6360 -60.6280 340° North 476 548 34,000  Level FlightAware ADS-B
Fri 01:52:23 AM 14.7110 -60.6580 339° North 477 549 34,000  Level FlightAware ADS-B
Fri 01:53:13 AM 14.8180 -60.6990 340° North 477 549 34,000  Level FlightAware ADS-B
Fri 01:54:03 AM 14.9230 -60.7400 339° North 479 551 34,000  Level FlightAware ADS-B
Fri 01:55:03 AM 15.0460 -60.7890 339° North 477 549 34,000  Level FlightAware ADS-B
Fri 01:55:43 AM 15.1310 -60.8220 339° North 477 549 34,000  Level FlightAware ADS-B
Fri 01:56:23 AM 15.2120 -60.8530 340° North 476 548 34,000  Level FlightAware ADS-B
Fri 01:57:03 AM 15.2900 -60.8840 339° North 476 548 34,000  Level FlightAware ADS-B
Fri 01:57:48 AM 15.3830 -60.9210 339° North 479 551 34,000  Level FlightAware ADS-B
Fri 01:58:33 AM 15.4870 -60.9610 340° North 477 549 34,000  Level FlightAware ADS-B
Fri 01:59:13 AM 15.5570 -60.9890 339° North 477 549 34,000  Level FlightAware ADS-B
Fri 01:59:53 AM 15.6450 -61.0240 339° North 479 551 34,000  Level FlightAware ADS-B
Fri 02:00:38 AM 15.7430 -61.0620 340° North 479 551 34,000  Level FlightAware ADS-B
Fri 02:01:13 AM 15.8080 -61.0880 339° North 479 551 34,000  Level FlightAware ADS-B
Fri 02:02:03 AM 15.9190 -61.1310 340° North 479 551 34,000  Level FlightAware ADS-B
Fri 02:02:43 AM 16.0060 -61.1660 339° North 478 550 34,000  Level FlightAware ADS-B
Fri 02:03:38 AM 16.1160 -61.2090 339° North 478 550 34,000  Level FlightAware ADS-B
Fri 02:04:33 AM 16.2300 -61.2540 339° North 477 549 34,000  Level FlightAware ADS-B
Fri 02:05:13 AM 16.3070 -61.2850 339° North 477 549 34,000  Level FlightAware ADS-B
Fri 02:05:58 AM 16.4050 -61.3230 340° North 477 549 34,000  Level FlightAware ADS-B
Fri 02:06:38 AM 16.4860 -61.3550 339° North 476 548 34,000  Level FlightAware ADS-B
Fri 02:07:18 AM 16.5670 -61.3870 339° North 476 548 34,000  Level FlightAware ADS-B
Fri 02:08:03 AM 16.6700 -61.4280 339° North 474 545 34,000  Level FlightAware ADS-B
Fri 02:08:48 AM 16.7550 -61.4620 339° North 471 542 34,000  Level FlightAware ADS-B
Fri 02:09:28 AM 16.8290 -61.4910 339° North 470 541 34,000  Level FlightAware ADS-B
Fri 02:10:13 AM 16.9240 -61.5280 340° North 467 537 34,000  Level FlightAware ADS-B
Fri 02:10:53 AM 17.0070 -61.5610 339° North 466 536 34,000  Level FlightAware ADS-B
Fri 02:11:33 AM 17.0860 -61.5920 339° North 467 537 34,000  Level FlightAware ADS-B
Fri 02:12:08 AM 17.1570 -61.6200 339° North 466 536 34,000  Level FlightAware ADS-B
Fri 02:12:58 AM 17.2540 -61.6590 339° North 466 536 34,000  Level FlightAware ADS-B
Fri 02:13:38 AM 17.3420 -61.6940 339° North 464 534 34,000  Level FlightAware ADS-B
Fri 02:14:23 AM 17.4440 -61.7340 339° North 461 531 34,000  Level FlightAware ADS-B
Fri 02:15:03 AM 17.5230 -61.7650 339° North 460 529 34,000  Level FlightAware ADS-B
Fri 02:15:48 AM 17.6130 -61.8010 339° North 459 528 34,000  Level FlightAware ADS-B
Fri 02:16:28 AM 17.6940 -61.8330 339° North 458 527 34,000  Level FlightAware ADS-B
Fri 02:17:23 AM 17.7920 -61.8720 339° North 458 527 34,000  Level FlightAware ADS-B
Fri 02:18:03 AM 17.8600 -61.8990 339° North 458 527 34,000  Level FlightAware ADS-B
Fri 02:18:43 AM 17.9270 -61.9260 339° North 458 527 34,000  Level FlightAware ADS-B
Fri 02:19:28 AM 18.0490 -61.9630 344° North 469 540 34,000  Level FlightAware ADS-B
Fri 02:20:13 AM 18.1460 -61.9810 350° North 470 541 34,000  Level FlightAware ADS-B
Fri 02:20:53 AM 18.2390 -61.9980 350° North 470 541 34,000  Level FlightAware ADS-B
Fri 02:21:33 AM 18.3220 -62.0140 350° North 470 541 34,000  Level FlightAware ADS-B
Fri 02:22:18 AM 18.4060 -62.0290 350° North 470 541 34,000  Level FlightAware ADS-B
Fri 02:22:58 AM 18.4790 -62.0430 350° North 470 541 34,000  Level FlightAware ADS-B
Fri 02:23:38 AM 18.5520 -62.0560 350° North 470 541 34,000  Level FlightAware ADS-B
Fri 02:24:18 AM 18.6240 -62.0700 350° North 470 541 34,000  Level FlightAware ADS-B
Fri 02:25:08 AM 18.7770 -62.0990 350° North 469 540 34,000  Level FlightAware ADS-B
Fri 02:25:48 AM 18.8500 -62.1130 350° North 469 540 34,000  Level FlightAware ADS-B
Fri 02:26:48 AM 18.9930 -62.1400 350° North 465 535 34,000  Level FlightAware ADS-B
Fri 02:27:23 AM 19.0710 -62.1550 350° North 464 534 34,000  Level FlightAware ADS-B
Fri 02:28:08 AM 19.1550 -62.1710 350° North 464 534 34,000  Level FlightAware ADS-B
Fri 02:28:48 AM 19.2270 -62.1840 350° North 464 534 34,000  Level FlightAware ADS-B
Fri 02:29:28 AM 19.2990 -62.1980 350° North 464 534 34,000  Level FlightAware ADS-B
Fri 02:30:18 AM 19.3890 -62.2140 350° North 464 534 34,000  Level FlightAware ADS-B
Fri 02:30:58 AM 19.4610 -62.2280 350° North 464 534 34,000  Level FlightAware ADS-B
Fri 02:31:38 AM 19.5320 -62.2410 350° North 464 534 34,000  Level FlightAware ADS-B
Fri 02:32:18 AM 19.6040 -62.2550 350° North 464 534 34,000  Level FlightAware ADS-B
Fri 02:32:58 AM 19.6760 -62.2680 350° North 464 534 34,000  Level FlightAware ADS-B
Fri 02:33:38 AM 19.7480 -62.2820 350° North 464 534 34,000  Level FlightAware ADS-B
Fri 02:34:28 AM 19.8380 -62.2990 350° North 464 534 34,000  Level FlightAware ADS-B
Fri 02:35:08 AM 19.9100 -62.3120 350° North 464 534 34,000  Level FlightAware ADS-B
Fri 02:35:48 AM 19.9820 -62.3250 350° North 464 534 34,000  Level FlightAware ADS-B
Fri 02:36:28 AM 20.0540 -62.3390 350° North 464 534 34,000  Level FlightAware ADS-B
Fri 02:37:08 AM 20.1250 -62.3520 350° North 464 534 34,000 -105 Level FlightAware ADS-B
Fri 02:37:25 AM 20.3000 -62.4000 350° North 450 518 33,900 -78 Descending San Juan Center
Fri 02:38:25 AM 20.4167 -62.4333 345° North 450 518 33,900 58 Level San Juan Center
Fri 02:39:08 AM 20.5333 -62.4500 349° North 451 519 34,000 27 Climbing New York Oceanic (ODAPS)
Fri 02:42:11 AM 20.8500 -62.5167 350° North 454 522 34,000  Level New York Oceanic (ODAPS)
Fri 02:46:00 AM 21.4365 -62.6300 349° North 451 519 34,000  Level FlightAware Transoceanic
Fri 02:46:06 AM 21.3833 -62.6333 350° North 451 519 34,000  Level New York Oceanic (ODAPS)
Fri 02:47:00 AM 21.5655 -62.6559 349° North 451 519 34,000  Level FlightAware Transoceanic
Fri 02:48:00 AM 21.6452 -62.6746 349° North 454 522 34,000  Level FlightAware Transoceanic
Fri 02:49:00 AM 21.7777 -62.7011 349° North 454 522 34,000  Level FlightAware Transoceanic
Fri 02:50:00 AM 21.9102 -62.7276 349° North 454 522 34,000  Level FlightAware Transoceanic
Fri 02:51:00 AM 22.0427 -62.7542 349° North 454 522 34,000  Level FlightAware Transoceanic
Fri 02:52:00 AM 22.1305 -62.7789 350° North 451 519 34,000  Level FlightAware Transoceanic
Fri 02:53:00 AM 22.2550 -62.8034 350° North 451 519 34,000 714 Level FlightAware Transoceanic
Fri 02:53:24 AM 22.2500 -62.8333 337° Northwest 447 514 35,000  Climbing New York Oceanic (ODAPS)
Fri 02:54:00 AM 22.3795 -62.8278 350° North 451 519 34,000 -625 Descending FlightAware Transoceanic
Fri 02:55:00 AM 22.5040 -62.8523 350° North 451 519 34,000 556 Level FlightAware Transoceanic
Fri 02:55:48 AM 22.5167 -62.9500 337° Northwest 452 520 35,000  Climbing New York Oceanic (ODAPS)
Fri 02:56:00 AM 22.6286 -62.8769 350° North 451 519 34,000 -833 Descending FlightAware Transoceanic
Fri 02:57:00 AM 22.7531 -62.9015 350° North 451 519 34,000  Level FlightAware Transoceanic
Fri 02:58:00 AM 22.8776 -62.9261 350° North 451 519 34,000 500 Level FlightAware Transoceanic
Fri 02:59:00 AM 22.9734 -63.1602 337° Northwest 447 514 35,000 500 Climbing FlightAware Transoceanic
Fri 03:00:00 AM 23.0939 -63.2150 337° Northwest 447 514 35,000  Level FlightAware Transoceanic
Fri 03:01:00 AM 23.2144 -63.2699 337° Northwest 447 514 35,000  Level FlightAware Transoceanic
Fri 03:02:00 AM 23.3589 -63.3327 337° Northwest 452 520 35,000  Level FlightAware Transoceanic
Fri 03:03:00 AM 23.4792 -63.3877 337° Northwest 452 520 35,000  Level FlightAware Transoceanic
Fri 03:03:08 AM 23.3833 -63.3500 337° Northwest 459 528 35,000  Level New York Oceanic (ODAPS)
Fri 03:04:00 AM 23.5994 -63.4429 337° Northwest 452 520 35,000  Level FlightAware Transoceanic
Fri 03:05:00 AM 23.7196 -63.4982 337° Northwest 452 520 35,000  Level FlightAware Transoceanic
Fri 03:06:00 AM 23.8398 -63.5536 337° Northwest 452 520 35,000  Level FlightAware Transoceanic
Fri 03:07:00 AM 23.9600 -63.6090 337° Northwest 452 520 35,000  Level FlightAware Transoceanic
Fri 03:07:17 AM 23.8667 -63.5833 332° Northwest 454 522 35,000  Level New York Oceanic (ODAPS)
Fri 03:08:00 AM 24.0801 -63.6646 337° Northwest 452 520 35,000  Level FlightAware Transoceanic
Fri 03:08:11 AM 23.9667 -63.6500 332° Northwest 457 526 35,000  Level New York Oceanic (ODAPS)
Fri 03:09:00 AM 24.1154 -63.6868 337° Northwest 459 528 35,000  Level FlightAware Transoceanic
Fri 03:09:35 AM 24.1167 -63.7333 332° Northwest 455 524 35,000  Level New York Oceanic (ODAPS)
Fri 03:10:00 AM 24.2373 -63.7433 337° Northwest 459 528 35,000  Level FlightAware Transoceanic
Fri 03:11:00 AM 24.3592 -63.7999 337° Northwest 459 528 35,000  Level FlightAware Transoceanic
Fri 03:12:00 AM 24.4811 -63.8566 337° Northwest 459 528 35,000  Level FlightAware Transoceanic
Fri 03:13:00 AM 24.5372 -63.9693 332° Northwest 454 522 35,000 -588 Level FlightAware Transoceanic
Fri 03:13:42 AM 17.0100 -61.5620 332° Northwest 467 537 34,000  Descending FlightAware ADS-B
Fri 03:14:00 AM 24.6696 -64.0546 332° Northwest 457 526 35,000  Climbing FlightAware Transoceanic
Fri 03:14:22 AM 17.0780 -61.5900 339° North 467 537 34,000  Descending FlightAware ADS-B
Fri 03:15:00 AM 24.8162 -64.1373 332° Northwest 455 524 35,000  Climbing FlightAware Transoceanic
Fri 03:15:02 AM 17.1470 -61.6170 332° Northwest 467 537 34,000 -1,429 Descending FlightAware ADS-B
Fri 03:15:42 AM 17.2150 -61.6450 339° North 467 537 34,000  Level FlightAware ADS-B
Fri 03:16:32 AM 17.3010 -61.6790 339° North 467 537 34,000  Level FlightAware ADS-B
Fri 03:17:12 AM 17.3700 -61.7070 339° North 467 537 34,000  Level FlightAware ADS-B
Fri 03:17:52 AM 17.4380 -61.7350 339° North 467 537 34,000  Level FlightAware ADS-B
Fri 03:18:32 AM 17.5070 -61.7620 340° North 467 537 34,000  Level FlightAware ADS-B
Fri 03:19:12 AM 17.5750 -61.7900 339° North 467 537 34,000  Level FlightAware ADS-B
Fri 03:20:02 AM 17.6610 -61.8240 339° North 467 537 34,000  Level FlightAware ADS-B
Fri 03:20:42 AM 17.7300 -61.8520 339° North 467 537 34,000  Level FlightAware ADS-B
Fri 03:21:22 AM 17.7980 -61.8800 339° North 467 537 34,000  Level FlightAware ADS-B
Fri 03:22:02 AM 17.8670 -61.9070 340° North 467 537 34,000  Level FlightAware ADS-B
Fri 03:22:42 AM 17.9350 -61.9350 339° North 467 537 34,000 732 Level FlightAware ADS-B
Fri 03:23:24 AM 25.6833 -64.6500 332° Northwest 468 539 35,000 159 Climbing New York Oceanic (ODAPS)
Fri 03:25:00 AM 18.2105 -62.0013 349° North  Level FlightAware Approximate
Fri 03:26:00 AM 18.3369 -62.0261 349° North  Level FlightAware Approximate
Fri 03:27:00 AM 18.4634 -62.0509 349° North  Level FlightAware Approximate
Fri 03:28:00 AM 18.5898 -62.0757 349° North  Level FlightAware Approximate
Fri 03:29:00 AM 26.3882 -65.0687 332° Northwest 468 539 35,000  Level FlightAware Transoceanic
Fri 03:30:00 AM 26.5055 -65.1390 332° Northwest 468 539 35,000  Level FlightAware Transoceanic
Fri 03:31:00 AM 26.6229 -65.2094 332° Northwest 468 539 35,000  Level FlightAware Transoceanic
Fri 03:32:00 AM 26.7401 -65.2800 332° Northwest 468 539 35,000  Level FlightAware Transoceanic
Fri 03:33:00 AM 26.8574 -65.3507 332° Northwest 468 539 35,000  Level FlightAware Transoceanic
Fri 03:34:00 AM 26.9746 -65.4215 332° Northwest 468 539 35,000  Level FlightAware Transoceanic
Fri 03:35:00 AM 27.0918 -65.4925 332° Northwest 468 539 35,000  Level FlightAware Transoceanic
Fri 03:35:15 AM 27.0667 -65.4833 332° Northwest 484 557 35,000  Level New York Oceanic (ODAPS)
Fri 03:36:00 AM 27.2089 -65.5637 332° Northwest 468 539 35,000  Level FlightAware Transoceanic
Fri 03:37:00 AM 27.3260 -65.6350 332° Northwest 468 539 35,000  Level FlightAware Transoceanic
Fri 03:37:19 AM 27.3000 -65.6167 332° Northwest 488 562 35,000  Level New York Oceanic (ODAPS)
Fri 03:38:00 AM 27.4431 -65.7065 332° Northwest 468 539 35,000  Level FlightAware Transoceanic
Fri 03:39:00 AM 27.5601 -65.7781 331° Northwest 468 539 35,000  Level FlightAware Transoceanic
Fri 03:40:00 AM 27.6771 -65.8498 331° Northwest 468 539 35,000  Level FlightAware Transoceanic
Fri 03:41:00 AM 27.7731 -65.9139 331° Northwest 484 557 35,000  Level FlightAware Transoceanic
Fri 03:42:00 AM 27.8907 -65.9862 331° Northwest 484 557 35,000  Level FlightAware Transoceanic
Fri 03:43:00 AM 28.0064 -66.0507 331° Northwest 488 562 35,000  Level FlightAware Transoceanic
Fri 03:44:00 AM 28.1240 -66.1235 331° Northwest 488 562 35,000  Level FlightAware Transoceanic
Fri 03:45:00 AM 28.2415 -66.1966 331° Northwest 488 562 35,000  Level FlightAware Transoceanic
Fri 03:46:00 AM 28.3591 -66.2698 331° Northwest 488 562 35,000  Level FlightAware Transoceanic
Fri 03:47:00 AM 28.4765 -66.3431 331° Northwest 488 562 35,000  Level FlightAware Transoceanic
Fri 03:48:00 AM 28.5940 -66.4167 331° Northwest 488 562 35,000  Level FlightAware Transoceanic
Fri 03:49:00 AM 28.7114 -66.4904 331° Northwest 488 562 35,000  Level FlightAware Transoceanic
Fri 03:50:00 AM 28.8288 -66.5642 331° Northwest 488 562 35,000  Level FlightAware Transoceanic
Fri 03:50:59 AM 28.9833 -66.6667 331° Northwest 494 568 35,000  Level New York Oceanic (ODAPS)
Fri 03:51:00 AM 28.9461 -66.6383 331° Northwest 488 562 35,000  Level FlightAware Transoceanic
Fri 03:52:00 AM 29.0634 -66.7124 331° Northwest 488 562 35,000  Level FlightAware Transoceanic
Fri 03:53:00 AM 29.1806 -66.7868 331° Northwest 488 562 35,000  Level FlightAware Transoceanic
Fri 03:54:00 AM 29.2978 -66.8613 331° Northwest 488 562 35,000  Level FlightAware Transoceanic
Fri 03:55:00 AM 29.4149 -66.9360 331° Northwest 488 562 35,000  Level FlightAware Transoceanic
Fri 03:56:00 AM 29.5321 -67.0109 331° Northwest 488 562 35,000  Level FlightAware Transoceanic
Fri 03:57:00 AM 29.7103 -67.1287 331° Northwest 494 568 35,000  Level FlightAware Transoceanic
Fri 03:58:00 AM 29.8313 -67.2063 331° Northwest 494 568 35,000  Level FlightAware Transoceanic
Fri 03:59:00 AM 29.9522 -67.2841 331° Northwest 494 568 35,000  Level FlightAware Transoceanic
Fri 04:00:00 AM 30.0731 -67.3622 331° Northwest 494 568 35,000  Level FlightAware Transoceanic
Fri 04:01:00 AM 30.1940 -67.4404 331° Northwest 494 568 35,000  Level FlightAware Transoceanic
Fri 04:02:00 AM 30.3148 -67.5188 331° Northwest 494 568 35,000  Level FlightAware Transoceanic
Fri 04:03:00 AM 30.4356 -67.5974 331° Northwest 494 568 35,000  Level FlightAware Transoceanic
Fri 04:04:00 AM 30.5563 -67.6762 331° Northwest 494 568 35,000  Level FlightAware Transoceanic
Fri 04:04:50 AM 30.6667 -67.7500 331° Northwest 501 577 35,000  Level New York Oceanic (ODAPS)
Fri 04:05:00 AM 30.6770 -67.7552 331° Northwest 494 568 35,000  Level FlightAware Transoceanic
Fri 04:06:00 AM 30.7976 -67.8344 331° Northwest 494 568 35,000  Level FlightAware Transoceanic
Fri 04:07:00 AM 30.9182 -67.9138 331° Northwest 494 568 35,000  Level FlightAware Transoceanic
Fri 04:08:00 AM 31.0387 -67.9933 330° Northwest 494 568 35,000  Level FlightAware Transoceanic
Fri 04:09:00 AM 31.1592 -68.0731 330° Northwest 494 568 35,000  Level FlightAware Transoceanic
Fri 04:10:00 AM 31.2796 -68.1531 330° Northwest 494 568 35,000  Level FlightAware Transoceanic
Fri 04:10:51 AM 31.4000 -68.2333 341° North 495 570 35,000  Level New York Oceanic (ODAPS)
Fri 04:11:00 AM 31.4000 -68.2333 341° North 501 577 35,000  Level FlightAware Transoceanic
Fri 04:12:00 AM 31.5295 -68.2855 341° North 501 577 35,000  Level FlightAware Transoceanic
Fri 04:13:00 AM 31.6590 -68.3379 341° North 501 577 35,000  Level FlightAware Transoceanic
Fri 04:14:00 AM 31.7884 -68.3903 341° North 501 577 35,000  Level FlightAware Transoceanic
Fri 04:15:00 AM 31.9178 -68.4429 341° North 501 577 35,000  Level FlightAware Transoceanic
Fri 04:16:00 AM 32.0472 -68.4957 341° North 501 577 35,000  Level FlightAware Transoceanic
Fri 04:17:00 AM 32.1928 -68.5553 341° North 495 570 35,000  Level FlightAware Transoceanic
Fri 04:18:00 AM 32.3248 -68.6095 341° North 495 570 35,000  Level FlightAware Transoceanic
Fri 04:18:46 AM 32.4333 -68.6667 341° North 494 568 35,000  Level New York Oceanic (ODAPS)
Fri 04:19:00 AM 32.4569 -68.6638 341° North 495 570 35,000  Level FlightAware Transoceanic
Fri 04:20:00 AM 32.5889 -68.7183 341° North 495 570 35,000  Level FlightAware Transoceanic
Fri 04:21:00 AM 32.7209 -68.7730 341° North 495 570 35,000  Level FlightAware Transoceanic
Fri 04:22:00 AM 32.8528 -68.8278 341° North 495 570 35,000  Level FlightAware Transoceanic
Fri 04:23:00 AM 32.9848 -68.8828 341° North 495 570 35,000  Level FlightAware Transoceanic
Fri 04:24:00 AM 33.1167 -68.9380 341° North 495 570 35,000  Level FlightAware Transoceanic
Fri 04:25:00 AM 33.2285 -68.9957 341° North 494 568 35,000  Level FlightAware Transoceanic
Fri 04:26:00 AM 33.3610 -69.0511 341° North 494 568 35,000  Level FlightAware Transoceanic
Fri 04:27:00 AM 33.4934 -69.1067 341° North 494 568 35,000  Level FlightAware Transoceanic
Fri 04:28:00 AM 33.6258 -69.1625 341° North 494 568 35,000  Level FlightAware Transoceanic
Fri 04:29:00 AM 33.7582 -69.2184 341° North 494 568 35,000  Level FlightAware Transoceanic
Fri 04:30:00 AM 33.8905 -69.2745 341° North 494 568 35,000  Level FlightAware Transoceanic
Fri 04:31:00 AM 34.0229 -69.3308 341° North 494 568 35,000  Level FlightAware Transoceanic
Fri 04:32:00 AM 34.1552 -69.3873 341° North 494 568 35,000  Level FlightAware Transoceanic
Fri 04:32:34 AM 34.2500 -69.4167 340° North 499 574 35,000  Level New York Oceanic (ODAPS)
Fri 04:33:00 AM 34.2874 -69.4439 340° North 494 568 35,000  Level FlightAware Transoceanic
Fri 04:34:00 AM 34.4197 -69.5007 340° North 494 568 35,000  Level FlightAware Transoceanic
Fri 04:35:00 AM 34.5519 -69.5577 340° North 494 568 35,000  Level FlightAware Transoceanic
Fri 04:36:00 AM 34.6841 -69.6149 340° North 494 568 35,000  Level FlightAware Transoceanic
Fri 04:37:00 AM 34.8162 -69.6722 340° North 494 568 35,000  Level FlightAware Transoceanic
Fri 04:38:00 AM 34.9182 -69.7075 340° North 499 574 35,000  Level FlightAware Transoceanic
Fri 04:39:00 AM 35.0518 -69.7662 340° North 499 574 35,000  Level FlightAware Transoceanic
Fri 04:40:00 AM 35.1853 -69.8251 340° North 499 574 35,000  Level FlightAware Transoceanic
Fri 04:41:00 AM 35.3188 -69.8842 340° North 499 574 35,000  Level FlightAware Transoceanic
Fri 04:42:00 AM 35.4523 -69.9436 340° North 499 574 35,000  Level FlightAware Transoceanic
Fri 04:43:00 AM 35.5857 -70.0031 340° North 499 574 35,000  Level FlightAware Transoceanic
Fri 04:44:00 AM 35.7191 -70.0628 340° North 499 574 35,000  Level FlightAware Transoceanic
Fri 04:45:00 AM 35.8525 -70.1227 340° North 499 574 35,000  Level FlightAware Transoceanic
Fri 04:46:00 AM 35.9859 -70.1828 340° North 499 574 35,000  Level FlightAware Transoceanic
Fri 04:47:00 AM 36.1192 -70.2431 340° North 499 574 35,000  Level FlightAware Transoceanic
Fri 04:48:00 AM 36.2525 -70.3036 340° North 499 574 35,000  Level FlightAware Transoceanic
Fri 04:48:13 AM 36.0500 -70.2167 340° North 488 562 35,000  Level New York Oceanic (ODAPS)
Fri 04:49:00 AM 36.3858 -70.3643 340° North 499 574 35,000  Level FlightAware Transoceanic
Fri 04:50:00 AM 36.5190 -70.4253 340° North 499 574 35,000  Level FlightAware Transoceanic
Fri 04:51:00 AM 36.6522 -70.4864 340° North 499 574 35,000  Level FlightAware Transoceanic
Fri 04:52:00 AM 36.7854 -70.5478 340° North 499 574 35,000  Level FlightAware Transoceanic
Fri 04:53:00 AM 36.9185 -70.6093 340° North 499 574 35,000  Level FlightAware Transoceanic
Fri 04:54:00 AM 37.0762 -70.6845 340° North 488 562 35,000  Level FlightAware Transoceanic
Fri 04:55:00 AM 37.2044 -70.7439 340° North 488 562 35,000  Level FlightAware Transoceanic
Fri 04:56:00 AM 37.3325 -70.8034 340° North 488 562 35,000  Level FlightAware Transoceanic
Fri 04:56:46 AM 37.3267 -70.8217 330° Northwest 467 537 35,000  Level New York Center
Fri 04:57:00 AM 37.4606 -70.8632 340° North 488 562 35,000  Level FlightAware Transoceanic
Fri 04:57:48 AM 37.4225 -70.9314 318° Northwest 459 528 35,000  Level New York Center
Fri 04:58:00 AM 37.5886 -70.9231 340° North 488 562 35,000  Level FlightAware Transoceanic
Fri 04:58:48 AM 37.5181 -71.0444 317° Northwest 464 534 35,000  Level New York Center
Fri 04:59:00 AM 37.7167 -70.9833 330° Northwest 488 562 35,000  Level FlightAware Transoceanic
Fri 05:00:00 AM 37.8260 -71.0639 330° Northwest 488 562 35,000  Level FlightAware Transoceanic
Fri 05:01:00 AM 37.9352 -71.1447 330° Northwest 488 562 35,000  Level FlightAware Transoceanic
Fri 05:04:31 AM 38.0813 -71.6836 317° Northwest 470 541 35,000  Level FlightAware ADS-B
Fri 05:06:10 AM 38.2360 -71.8741 316° Northwest 471 542 35,000  Level FlightAware ADS-B
Fri 05:06:41 AM 38.2844 -71.9342 316° Northwest 471 542 35,000  Level FlightAware ADS-B
Fri 05:07:15 AM 38.3364 -71.9989 316° Northwest 471 542 35,000  Level FlightAware ADS-B
Fri 05:07:46 AM 38.3855 -72.0600 316° Northwest 471 542 35,000  Level FlightAware ADS-B
Fri 05:08:16 AM 38.4320 -72.1183 316° Northwest 470 541 35,000  Level FlightAware ADS-B
Fri 05:08:47 AM 38.4801 -72.1785 316° Northwest 470 541 35,000  Level FlightAware ADS-B
Fri 05:09:17 AM 38.5266 -72.2369 316° Northwest 469 540 35,000  Level FlightAware ADS-B
Fri 05:09:50 AM 38.5769 -72.3004 315° West 468 539 35,000 -188 Level FlightAware ADS-B
Fri 05:10:21 AM 38.6241 -72.3599 315° West 467 537 34,800 -1,180 Descending FlightAware ADS-B
Fri 05:10:51 AM 38.6706 -72.4188 315° West 463 533 33,800 -2,700 Descending FlightAware ADS-B
Fri 05:11:21 AM 38.7167 -72.4772 315° West 470 541 32,100 -3,344 Descending FlightAware ADS-B
Fri 05:11:52 AM 38.7632 -72.5368 315° West 476 548 30,400 -2,951 Descending FlightAware ADS-B
Fri 05:12:22 AM 38.8102 -72.5962 315° West 473 544 29,100 -2,600 Descending FlightAware ADS-B
Fri 05:12:52 AM 38.8571 -72.6562 315° West 468 539 27,800 -2,500 Descending FlightAware ADS-B
Fri 05:13:22 AM 38.9029 -72.7148 315° West 463 533 26,600 -2,361 Descending FlightAware ADS-B
Fri 05:13:53 AM 38.9487 -72.7736 315° West 457 526 25,400 -2,361 Descending FlightAware ADS-B
Fri 05:14:23 AM 38.9930 -72.8309 315° West 451 519 24,200 -2,300 Descending FlightAware ADS-B
Fri 05:14:53 AM 39.0373 -72.8882 315° West 445 512 23,100 -2,300 Descending FlightAware ADS-B
Fri 05:15:23 AM 39.0810 -72.9446 315° West 438 504 21,900 -2,262 Descending FlightAware ADS-B
Fri 05:15:54 AM 39.1238 -73.0004 315° West 431 496 20,800 -2,164 Descending FlightAware ADS-B
Fri 05:16:24 AM 39.1665 -73.0560 315° West 424 488 19,700 -2,164 Descending FlightAware ADS-B
Fri 05:16:55 AM 39.2079 -73.1100 315° West 418 481 18,600 -2,262 Descending FlightAware ADS-B
Fri 05:17:25 AM 39.2495 -73.1641 315° West 413 475 17,400 -2,262 Descending FlightAware ADS-B
Fri 05:17:56 AM 39.2905 -73.2178 315° West 407 468 16,300 -2,164 Descending FlightAware ADS-B
Fri 05:18:26 AM 39.3301 -73.2700 314° West 400 460 15,200 -2,073 Descending FlightAware ADS-B
Fri 05:18:51 AM 39.3619 -73.3118 315° West 395 455 14,400 -2,000 Descending FlightAware ADS-B
Fri 05:19:20 AM 39.3986 -73.3604 314° West 390 449 13,400 -2,034 Descending FlightAware ADS-B
Fri 05:19:50 AM 39.4360 -73.4098 314° West 384 442 12,400 -2,000 Descending FlightAware ADS-B
Fri 05:20:20 AM 39.4729 -73.4589 314° West 379 436 11,400 -2,000 Descending FlightAware ADS-B
Fri 05:20:50 AM 39.5095 -73.5073 314° West 375 432 10,400 -1,279 Descending FlightAware ADS-B
Fri 05:21:21 AM 39.5454 -73.5552 314° West 351 404 10,100 -295 Descending FlightAware ADS-B
Fri 05:21:51 AM 39.5777 -73.5985 314° West 319 367 10,100 -115 Level FlightAware ADS-B
Fri 05:22:13 AM 39.5997 -73.6279 314° West 301 346 10,000 -811 Descending FlightAware ADS-B
Fri 05:22:28 AM 39.6144 -73.6480 314° West 303 349 9,600 -1,548 Descending FlightAware ADS-B
Fri 05:22:44 AM 39.6296 -73.6684 314° West 303 349 9,200 -1,355 Descending FlightAware ADS-B
Fri 05:22:59 AM 39.6444 -73.6883 314° West 307 353 8,900 -774 Descending FlightAware ADS-B
Fri 05:23:15 AM 39.6599 -73.7091 314° West 310 357 8,800 -581 Descending FlightAware ADS-B
Fri 05:23:30 AM 39.6756 -73.7302 314° West 308 354 8,600 -600 Descending FlightAware ADS-B
Fri 05:23:45 AM 39.6904 -73.7500 314° West 306 352 8,500 -387 Descending FlightAware ADS-B
Fri 05:24:01 AM 39.7055 -73.7704 314° West 306 352 8,400 -387 Descending FlightAware ADS-B
Fri 05:24:16 AM 39.7201 -73.7900 314° West 304 350 8,300 -400 Descending FlightAware ADS-B
Fri 05:24:31 AM 39.7354 -73.8107 314° West 303 349 8,200 -545 Descending FlightAware ADS-B
Fri 05:24:49 AM 39.7523 -73.8337 314° West 304 350 8,000 -486 Descending FlightAware ADS-B
Fri 05:25:08 AM 39.7707 -73.8588 314° West 302 348 7,900 -500 Descending FlightAware ADS-B
Fri 05:25:25 AM 39.7874 -73.8815 314° West 301 346 7,700 -556 Descending FlightAware ADS-B
Fri 05:26:02 AM 39.8190 -73.9240 314° West 290 334 7,400 -750 Descending FlightAware ADS-B
Fri 05:26:13 AM 39.8328 -73.9429 314° West 300 345 7,100 -1,333 Descending FlightAware ADS-B
Fri 05:26:47 AM 39.8644 -73.9865 313° West 293 337 6,400 -786 Descending FlightAware ADS-B
Fri 05:27:37 AM 39.9111 -74.0500 314° West 290 334 6,000 -364 Descending FlightAware ADS-B
Fri 05:27:53 AM 39.9251 -74.0695 313° West 291 335 6,000  Level FlightAware ADS-B
Fri 05:28:09 AM 39.9400 -74.0898 314° West 292 336 6,000  Level FlightAware ADS-B
Fri 05:28:25 AM 39.9550 -74.1103 314° West 291 335 6,000  Level FlightAware ADS-B
Fri 05:28:40 AM 39.9688 -74.1291 314° West 291 335 6,000  Level FlightAware ADS-B
Fri 05:28:55 AM 39.9832 -74.1489 314° West 291 335 6,000  Level FlightAware ADS-B
Fri 05:29:10 AM 39.9973 -74.1683 313° West 291 335 6,000  Level FlightAware ADS-B
Fri 05:29:26 AM 40.0118 -74.1884 313° West 291 335 6,000  Level FlightAware ADS-B
Fri 05:29:42 AM 40.0263 -74.2084 313° West 291 335 6,000  Level FlightAware ADS-B
Fri 05:29:57 AM 40.0405 -74.2280 313° West 291 335 6,000  Level FlightAware ADS-B
Fri 05:30:12 AM 40.0546 -74.2474 314° West 291 335 6,000  Level FlightAware ADS-B
Fri 05:30:28 AM 40.0687 -74.2670 313° West 290 334 6,000  Level FlightAware ADS-B
Fri 05:30:43 AM 40.0827 -74.2863 313° West 290 334 6,000  Level FlightAware ADS-B
Fri 05:31:00 AM 40.0983 -74.3077 314° West 289 333 6,000  Level FlightAware ADS-B
Fri 05:31:15 AM 40.1125 -74.3274 313° West 289 333 6,000  Level FlightAware ADS-B
Fri 05:31:30 AM 40.1263 -74.3467 313° West 289 333 6,000  Level FlightAware ADS-B
Fri 05:31:45 AM 40.1400 -74.3657 313° West 289 333 6,000  Level FlightAware ADS-B
Fri 05:32:01 AM 40.1543 -74.3856 313° West 289 333 6,000  Level FlightAware ADS-B
Fri 05:32:16 AM 40.1681 -74.4048 313° West 289 333 6,000  Level FlightAware ADS-B
Fri 05:32:33 AM 40.1837 -74.4263 314° West 289 333 6,000  Level FlightAware ADS-B
Fri 05:32:48 AM 40.1976 -74.4457 313° West 289 333 6,000  Level FlightAware ADS-B
Fri 05:33:03 AM 40.2109 -74.4641 313° West 290 334 6,000  Level FlightAware ADS-B
Fri 05:33:07 AM 40.2155 -74.4696 318° Northwest 292 336 6,000  Level FlightAware ADS-B
Fri 05:33:10 AM 40.2189 -74.4731 322° Northwest 294 338 6,000  Level FlightAware ADS-B
Fri 05:33:13 AM 40.2223 -74.4759 328° Northwest 296 341 6,000  Level FlightAware ADS-B
Fri 05:33:17 AM 40.2269 -74.4789 334° Northwest 297 342 6,000  Level FlightAware ADS-B
Fri 05:33:22 AM 40.2336 -74.4819 341° North 300 345 6,000  Level FlightAware ADS-B
Fri 05:33:26 AM 40.2391 -74.4834 348° North 301 346 6,000  Level FlightAware ADS-B
Fri 05:33:40 AM 40.2583 -74.4876 351° North 304 350 6,000  Level FlightAware ADS-B
Fri 05:33:55 AM 40.2796 -74.4924 350° North 305 351 6,000  Level FlightAware ADS-B
Fri 05:34:11 AM 40.3009 -74.4974 350° North 304 350 6,000  Level FlightAware ADS-B
Fri 05:34:26 AM 40.3222 -74.5024 350° North 304 350 6,000  Level FlightAware ADS-B
Fri 05:34:42 AM 40.3435 -74.5076 349° North 305 351 6,000  Level FlightAware ADS-B
Fri 05:34:57 AM 40.3647 -74.5126 350° North 305 351 6,000 -200 Level FlightAware ADS-B
Fri 05:35:12 AM 40.3858 -74.5178 349° North 304 350 5,900 -643 Descending FlightAware ADS-B
Fri 05:35:25 AM 40.4043 -74.5222 350° North 302 348 5,700 -1,034 Descending FlightAware ADS-B
Fri 05:35:41 AM 40.4250 -74.5272 350° North 300 345 5,400 -1,000 Descending FlightAware ADS-B
Fri 05:35:55 AM 40.4450 -74.5322 349° North 297 342 5,200 -1,125 Descending FlightAware ADS-B
Fri 05:35:57 AM 40.4472 -74.5327 350° North 301 346 5,100 -1,125 Descending FlightAware ADS-B
Fri 05:36:11 AM 40.4655 -74.5374 349° North 293 337 4,900 -1,071 Descending FlightAware ADS-B
Fri 05:36:25 AM 40.4849 -74.5423 349° North 292 336 4,600 -1,241 Descending FlightAware ADS-B
Fri 05:36:40 AM 40.5052 -74.5469 350° North 292 336 4,300 -1,355 Descending FlightAware ADS-B
Fri 05:36:56 AM 40.5253 -74.5510 351° North 291 335 3,900 -1,355 Descending FlightAware ADS-B
Fri 05:37:11 AM 40.5465 -74.5552 351° North 291 335 3,600 -1,200 Descending FlightAware ADS-B
Fri 05:37:26 AM 40.5665 -74.5586 353° North 290 334 3,300 -1,161 Descending FlightAware ADS-B
Fri 05:37:42 AM 40.5867 -74.5620 353° North 289 333 3,000 -581 Descending FlightAware ADS-B
Fri 05:37:57 AM 40.6071 -74.5655 353° North 289 333 3,000  Level FlightAware ADS-B
Fri 05:38:14 AM 40.6307 -74.5640 North 297 342 3,000  Level FlightAware ADS-B
Fri 05:38:42 AM 40.6624 -74.5371 33° Northeast 303 349 3,000  Level FlightAware ADS-B
Fri 05:39:18 AM 40.7029 -74.4967 37° Northeast 302 348 3,000  Level FlightAware ADS-B
Fri 05:39:38 AM 40.7252 -74.4746 37° Northeast 289 333 3,000  Level FlightAware ADS-B
Fri 05:40:13 AM 40.7603 -74.4398 37° Northeast 263 303 3,000  Level FlightAware ADS-B
Fri 05:40:47 AM 40.7910 -74.4090 37° Northeast 259 298 3,000  Level FlightAware ADS-B
Fri 05:41:12 AM 40.8165 -74.3826 38° Northeast 260 299 3,000  Level FlightAware ADS-B
Fri 05:41:16 AM 40.8193 -74.3779 52° Northeast 260 299 3,000  Level FlightAware ADS-B
Fri 05:41:21 AM 40.8230 -74.3705 57° Northeast 258 297 3,000  Level FlightAware ADS-B
Fri 05:41:33 AM 40.8298 -74.3538 62° Northeast 258 297 3,000  Level FlightAware ADS-B
Fri 05:41:49 AM 40.8379 -74.3324 63° Northeast 258 297 3,000  Level FlightAware ADS-B
Fri 05:42:29 AM 40.8600 -74.2761 63° Northeast 259 298 3,000  Level FlightAware ADS-B
Fri 05:42:35 AM 40.8632 -74.2679 63° Northeast 258 297 3,000  Level FlightAware ADS-B
Fri 05:42:41 AM 40.8658 -74.2592 68° East 255 293 3,000 -667 Level FlightAware ADS-B
Fri 05:42:44 AM 40.8668 -74.2538 76° East 251 289 2,900 -750 Descending FlightAware ADS-B
Fri 05:42:49 AM 40.8676 -74.2463 82° East 247 284 2,900 -381 Level FlightAware ADS-B
Fri 05:43:47 AM 40.8690 -74.1710 89° East 239 275 2,500 -273 Descending FlightAware ADS-B
Fri 05:44:17 AM 40.8570 -74.1280 110° East 208 239 2,500  Level FlightAware ADS-B
Fri 05:44:22 AM 40.8539 -74.1210 120° Southeast 204 235 2,500  Level FlightAware ADS-B
Fri 05:44:33 AM 40.8495 -74.1091 116° Southeast 199 229 2,500  Level FlightAware ADS-B
Fri 05:44:36 AM 40.8483 -74.1056 114° Southeast 197 227 2,500  Level FlightAware ADS-B
Fri 05:44:39 AM 40.8467 -74.1022 122° Southeast 193 222 2,500  Level FlightAware ADS-B
Fri 05:44:45 AM 40.8434 -74.0969 129° Southeast 183 211 2,500  Level FlightAware ADS-B
Fri 05:44:49 AM 40.8407 -74.0942 143° Southeast 176 203 2,500  Level FlightAware ADS-B
Fri 05:44:52 AM 40.8385 -74.0927 153° Southeast 171 197 2,500  Level FlightAware ADS-B
Fri 05:44:57 AM 40.8353 -74.0914 163° South 167 192 2,500 -600 Level FlightAware ADS-B
Fri 05:45:32 AM 40.8097 -74.0903 178° South 151 174 2,100 -615 Descending FlightAware ADS-B
Fri 05:45:36 AM 40.8067 -74.0920 203° Southwest 149 171 2,100 -706 Level FlightAware ADS-B
Fri 05:45:49 AM 40.7990 -74.0977 209° Southwest 142 163 1,900 -818 Descending FlightAware ADS-B
Fri 05:45:58 AM 40.7941 -74.1011 208° Southwest 133 153 1,800 -750 Descending FlightAware ADS-B
Fri 05:46:13 AM 40.7861 -74.1061 205° Southwest 126 145 1,600 -727 Descending FlightAware ADS-B
Fri 05:46:31 AM 40.7770 -74.1120 206° Southwest 123 142 1,400 -686 Descending FlightAware ADS-B
Fri 05:46:48 AM 40.7678 -74.1181 207° Southwest 126 145 1,200 -727 Descending FlightAware ADS-B
Fri 05:47:04 AM 40.7597 -74.1234 206° Southwest 128 147 1,000 -750 Descending FlightAware ADS-B
Fri 05:47:12 AM 40.7552 -74.1262 205° Southwest 132 152 900 -581 Descending FlightAware ADS-B
Fri 05:47:35 AM 40.7429 -74.1342 206° Southwest 134 154 700 -727 Descending FlightAware ADS-B
Fri 05:48:18 AM 40.7183 -74.1502 206° Southwest 134 154 100 -837 Descending FlightAware ADS-B

Login

Don't have an account? Register now (free) for customized features, flight alerts, and more!